Time;durP1;ratioP1;P1;durP2;ratioP2;P2;SDS_P1;SDS_P2;PMS_P1;PMS_P2;Temp;Humidity;BMP_temperature;BMP_pressure;BME280_temperature;BME280_humidity;BME280_pressure;Samples;Min_cycle;Max_cycle;Signal;HPM_P1;HPM_P2
2022/10/17 00:00:30;;;;;;;9.20;4.33;;;;;;;15.28;100.00;98664.44;5241390;22;20692;-93
2022/10/17 00:02:33;;;;;;;8.83;4.50;;;;;;;15.26;100.00;98674.22;5215615;22;21120;-95
2022/10/17 00:04:37;;;;;;;8.37;4.47;;;;;;;15.25;100.00;98667.31;5241699;22;21377;-94
2022/10/17 00:06:40;;;;;;;13.77;4.73;;;;;;;15.21;100.00;98673.75;5189249;22;20608;-96
2022/10/17 00:08:44;;;;;;;6.73;3.83;;;;;;;15.16;100.00;98663.56;5215184;22;20574;-96
2022/10/17 00:10:58;;;;;;;10.63;4.07;;;;;;;15.14;100.00;98662.84;5216048;22;21103;-95
2022/10/17 00:13:01;;;;;;;6.50;4.30;;;;;;;15.15;100.00;98674.19;5216772;22;20581;-94
2022/10/17 00:15:06;;;;;;;13.27;5.07;;;;;;;15.13;100.00;98674.31;5214929;22;20909;-95
2022/10/17 00:17:09;;;;;;;9.40;4.83;;;;;;;15.11;100.00;98672.78;5215269;22;20582;-95
2022/10/17 00:19:13;;;;;;;8.43;5.07;;;;;;;15.09;100.00;98664.16;5214865;22;20589;-95
2022/10/17 00:21:17;;;;;;;8.07;4.37;;;;;;;15.07;100.00;98672.16;5241267;22;20610;-94
2022/10/17 00:23:20;;;;;;;5.83;4.27;;;;;;;15.07;100.00;98672.16;5215898;22;20576;-95
2022/10/17 00:25:23;;;;;;;10.93;4.90;;;;;;;15.07;100.00;98679.22;5215063;22;20573;-91
2022/10/17 00:27:28;;;;;;;5.97;4.70;;;;;;;15.04;100.00;98674.19;5189399;22;20589;-94
2022/10/17 00:29:31;;;;;;;9.63;4.77;;;;;;;15.03;100.00;98676.94;5240382;22;20598;-95
2022/10/17 00:31:35;;;;;;;8.07;4.10;;;;;;;14.99;100.00;98672.88;5215173;22;21112;-94
2022/10/17 00:33:41;;;;;;;8.00;4.70;;;;;;;14.98;100.00;98679.09;5214219;22;20579;-95
2022/10/17 00:35:45;;;;;;;7.53;4.73;;;;;;;14.96;100.00;98670.47;5214606;22;20592;-95
2022/10/17 00:37:48;;;;;;;8.10;4.57;;;;;;;14.96;100.00;98680.97;5189209;22;21008;-94
2022/10/17 00:39:52;;;;;;;7.83;4.33;;;;;;;14.94;100.00;98685.53;5240792;22;20960;-93
2022/10/17 00:41:55;;;;;;;7.70;4.20;;;;;;;14.94;100.00;98691.59;5240701;22;21175;-96
2022/10/17 00:44:02;;;;;;;9.73;4.53;;;;;;;14.94;100.00;98685.53;5214123;22;20585;-92
2022/10/17 00:46:05;;;;;;;7.50;4.30;;;;;;;14.92;100.00;98683.00;5214294;22;21116;-93
2022/10/17 00:48:10;;;;;;;8.33;4.57;;;;;;;14.91;100.00;98686.56;5214839;22;20650;-95
2022/10/17 00:50:13;;;;;;;6.67;4.30;;;;;;;14.90;100.00;98679.69;5214622;22;20646;-94
2022/10/17 00:52:19;;;;;;;11.43;4.40;;;;;;;14.88;100.00;98680.72;5215228;22;20577;-95
2022/10/17 00:54:25;;;;;;;4.43;3.70;;;;;;;14.84;100.00;98679.28;5214371;22;21155;-95
2022/10/17 00:56:30;;;;;;;6.60;4.10;;;;;;;14.84;100.00;98680.13;5215084;22;20591;-94
2022/10/17 00:58:34;;;;;;;7.30;4.17;;;;;;;14.82;100.00;98676.78;5189008;22;20650;-95
2022/10/17 01:00:38;;;;;;;9.40;4.27;;;;;;;14.80;100.00;98672.59;5189599;22;20621;-95
2022/10/17 01:02:42;;;;;;;11.23;4.33;;;;;;;14.79;100.00;98676.19;5189532;22;20583;-95
2022/10/17 01:04:47;;;;;;;5.93;4.43;;;;;;;14.78;100.00;98679.78;5214522;22;20945;-96
2022/10/17 01:06:51;;;;;;;8.13;4.27;;;;;;;14.74;100.00;98673.91;5189449;22;21119;-94
2022/10/17 01:08:55;;;;;;;8.17;4.20;;;;;;;14.72;100.00;98675.81;5214437;22;20624;-93
2022/10/17 01:11:06;;;;;;;11.83;3.97;;;;;;;14.71;100.00;98668.88;5189180;22;20577;-95
2022/10/17 01:13:14;;;;;;;7.67;4.03;;;;;;;14.71;100.00;98671.50;5215314;22;20968;-94
2022/10/17 01:15:24;;;;;;;5.03;3.37;;;;;;;14.70;100.00;98677.72;5214938;22;21132;-95
2022/10/17 01:17:35;;;;;;;7.43;3.67;;;;;;;14.69;100.00;98665.53;5189231;22;20672;-95
2022/10/17 01:19:58;;;;;;;5.17;4.10;;;;;;;14.68;100.00;98674.34;5188532;22;21107;-94
2022/10/17 01:22:05;;;;;;;9.60;5.00;;;;;;;14.68;100.00;98678.78;5214857;22;20913;-95
2022/10/17 01:24:42;;;;;;;10.60;4.37;;;;;;;14.64;100.00;98678.19;5214910;22;20581;-93
2022/10/17 01:26:58;;;;;;;7.40;4.10;;;;;;;14.64;100.00;98685.19;5188504;22;20618;-95
2022/10/17 01:29:13;;;;;;;5.50;3.40;;;;;;;14.61;100.00;98677.56;5214144;22;20585;-95
2022/10/17 01:31:20;;;;;;;8.23;4.40;;;;;;;14.62;100.00;98676.63;5215337;22;21100;-96
2022/10/17 01:33:31;;;;;;;7.03;4.03;;;;;;;14.62;100.00;98682.69;5214887;22;20644;-93
2022/10/17 01:35:39;;;;;;;6.50;3.80;;;;;;;14.60;100.00;98681.97;5214200;22;20620;-95
2022/10/17 01:37:47;;;;;;;9.43;4.03;;;;;;;14.60;100.00;98679.34;5240111;22;20969;-95
2022/10/17 01:39:53;;;;;;;6.83;3.90;;;;;;;14.60;100.00;98681.97;5240069;22;20575;-95
2022/10/17 01:42:00;;;;;;;6.23;3.97;;;;;;;14.59;100.00;98678.66;5188298;22;20648;-95
2022/10/17 01:44:07;;;;;;;7.00;3.83;;;;;;;14.58;100.00;98682.22;5240617;22;20986;-95
2022/10/17 01:46:13;;;;;;;8.53;4.07;;;;;;;14.57;100.00;98684.00;5214460;22;20577;-95
2022/10/17 01:48:21;;;;;;;7.10;3.53;;;;;;;14.56;100.00;98681.50;5215366;22;20580;-95
2022/10/17 01:50:28;;;;;;;6.33;4.33;;;;;;;14.55;100.00;98683.25;5189926;22;20613;-94
2022/10/17 01:52:34;;;;;;;7.40;3.60;;;;;;;14.53;100.00;98674.69;5215848;22;20592;-95
2022/10/17 01:54:40;;;;;;;6.13;3.83;;;;;;;14.53;100.00;98669.44;5241562;22;20671;-94
2022/10/17 01:56:44;;;;;;;9.53;3.97;;;;;;;14.52;100.00;98673.00;5242243;22;20599;-96
2022/10/17 01:58:50;;;;;;;8.63;4.40;;;;;;;14.53;100.00;98679.09;5217405;22;20881;-96
2022/10/17 02:00:55;;;;;;;7.17;3.80;;;;;;;14.52;100.00;98682.66;5217482;22;20576;-96
2022/10/17 02:03:01;;;;;;;6.90;3.97;;;;;;;14.50;100.00;98679.31;5216291;22;20664;-96
2022/10/17 02:05:06;;;;;;;5.60;3.50;;;;;;;14.48;100.00;98684.69;5215701;22;20579;-95
2022/10/17 02:07:11;;;;;;;5.60;3.70;;;;;;;14.46;100.00;98676.06;5190766;22;21112;-96
2022/10/17 02:09:20;;;;;;;4.73;3.37;;;;;;;14.45;100.00;98678.81;5191136;22;20578;-96
2022/10/17 02:11:24;;;;;;;6.87;3.90;;;;;;;14.44;100.00;98677.16;5216587;22;20890;-96
2022/10/17 02:13:37;;;;;;;5.50;3.40;;;;;;;14.44;100.00;98675.34;5191653;22;20589;-95
2022/10/17 02:15:53;;;;;;;8.97;3.93;;;;;;;14.41;100.00;98672.97;5216406;22;20576;-95
2022/10/17 02:18:04;;;;;;;7.93;3.50;;;;;;;14.40;100.00;98667.81;5217067;22;20675;-96
2022/10/17 02:20:17;;;;;;;6.83;3.50;;;;;;;14.40;100.00;98667.81;5216804;22;20679;-95
2022/10/17 02:22:29;;;;;;;7.70;3.60;;;;;;;14.41;100.00;98669.50;5217085;22;21001;-95
2022/10/17 02:24:37;;;;;;;5.50;3.03;;;;;;;14.36;100.00;98672.47;5217803;22;20904;-96
2022/10/17 02:26:44;;;;;;;10.30;3.70;;;;;;;14.33;100.00;98671.88;5242660;22;21130;-94
2022/10/17 02:28:51;;;;;;;7.37;3.63;;;;;;;14.28;100.00;98674.84;5217330;22;20691;-96
2022/10/17 02:30:59;;;;;;;6.50;3.23;;;;;;;14.27;100.00;98673.16;5216871;22;20572;-95
2022/10/17 02:33:06;;;;;;;4.70;3.10;;;;;;;14.24;100.00;98668.13;5191330;22;21109;-95
2022/10/17 02:35:14;;;;;;;6.93;3.40;;;;;;;14.22;100.00;98670.03;5216468;22;20556;-96
2022/10/17 02:37:20;;;;;;;12.00;3.80;;;;;;;14.24;100.00;98673.38;5191633;22;20651;-96
2022/10/17 02:39:25;;;;;;;8.60;3.83;;;;;;;14.23;100.00;98682.19;5191361;22;20593;-95
2022/10/17 02:41:30;;;;;;;13.23;3.63;;;;;;;14.22;100.00;98683.16;5216978;22;20570;-96
2022/10/17 02:43:34;;;;;;;6.80;3.90;;;;;;;14.23;100.00;98674.31;5217128;22;20564;-95
2022/10/17 02:45:38;;;;;;;5.40;3.83;;;;;;;14.23;100.00;98683.97;5216353;22;20604;-94
2022/10/17 02:47:49;;;;;;;7.77;3.90;;;;;;;14.23;100.00;98689.22;5216854;22;20568;-95
2022/10/17 02:49:54;;;;;;;5.07;3.60;;;;;;;14.19;100.00;98682.53;5215968;22;20881;-96
2022/10/17 02:52:02;;;;;;;3.93;3.53;;;;;;;14.16;100.00;98682.75;5214984;22;21160;-94
2022/10/17 02:54:10;;;;;;;6.10;3.30;;;;;;;14.15;100.00;98686.34;5215085;22;20601;-94
2022/10/17 02:56:17;;;;;;;6.27;3.60;;;;;;;14.13;100.00;98680.34;5214557;22;20938;-92
2022/10/17 02:58:24;;;;;;;6.43;3.70;;;;;;;14.10;100.00;98685.81;5216388;22;20947;-96
2022/10/17 03:00:28;;;;;;;6.23;3.50;;;;;;;14.05;100.00;98682.69;5214655;22;20583;-95
2022/10/17 03:02:39;;;;;;;10.07;4.43;;;;;;;14.04;99.78;98678.34;5214356;22;20608;-95
2022/10/17 03:04:44;;;;;;;4.47;3.00;;;;;;;14.03;100.00;98681.94;5215049;22;20618;-95
2022/10/17 03:06:48;;;;;;;6.57;3.07;;;;;;;14.04;100.00;98675.72;5215356;22;20649;-95
2022/10/17 03:08:54;;;;;;;3.33;3.03;;;;;;;14.05;100.00;98687.94;5216051;22;20985;-94
2022/10/17 03:10:57;;;;;;;5.87;3.53;;;;;;;14.06;100.00;98689.63;5215770;22;20590;-95
2022/10/17 03:13:02;;;;;;;5.73;3.50;;;;;;;14.05;100.00;98687.94;5188994;22;21181;-95
2022/10/17 03:15:08;;;;;;;8.13;3.87;;;;;;;14.04;100.00;98685.41;5213545;22;20610;-94
2022/10/17 03:17:11;;;;;;;9.77;3.30;;;;;;;14.03;100.00;98687.19;5214882;22;20572;-95
2022/10/17 03:19:14;;;;;;;4.30;3.63;;;;;;;14.04;100.00;98693.28;5188961;22;20658;-94
2022/10/17 03:21:18;;;;;;;5.40;3.30;;;;;;;14.02;100.00;98687.31;5215052;22;20592;-94
2022/10/17 03:23:22;;;;;;;5.20;3.20;;;;;;;14.02;100.00;98692.56;5240818;22;20612;-95
2022/10/17 03:25:26;;;;;;;4.40;3.50;;;;;;;13.98;100.00;98691.94;5213796;22;20675;-95
2022/10/17 03:27:29;;;;;;;6.10;3.20;;;;;;;14.02;100.00;98697.81;5214083;22;20576;-93
2022/10/17 03:29:33;;;;;;;13.10;3.50;;;;;;;13.99;100.00;98696.22;5215066;22;20628;-96
2022/10/17 03:31:38;;;;;;;8.17;3.47;;;;;;;13.97;100.00;98692.88;5213335;22;20668;-94
2022/10/17 03:33:42;;;;;;;7.07;3.67;;;;;;;13.95;100.00;98700.03;5214793;22;20921;-95
2022/10/17 03:35:45;;;;;;;6.40;3.70;;;;;;;13.93;100.00;98695.84;5213460;22;20576;-94
2022/10/17 03:37:49;;;;;;;7.80;3.70;;;;;;;13.94;100.00;98690.47;5213264;22;20617;-94
2022/10/17 03:39:54;;;;;;;6.40;3.23;;;;;;;13.93;100.00;98694.03;5213967;22;20656;-94
2022/10/17 03:41:59;;;;;;;5.73;3.77;;;;;;;13.92;100.00;98696.78;5214307;22;21158;-94
2022/10/17 03:44:02;;;;;;;5.20;3.87;;;;;;;13.91;100.00;98695.94;5214551;22;21015;-94
2022/10/17 03:46:06;;;;;;;4.80;3.87;;;;;;;13.91;100.00;98698.56;5213642;22;20609;-93
2022/10/17 03:48:11;;;;;;;4.03;3.20;;;;;;;13.90;100.00;98696.88;5214232;22;20578;-95
2022/10/17 03:50:14;;;;;;;5.73;3.43;;;;;;;13.86;100.00;98708.56;5214401;22;21182;-94
2022/10/17 03:52:18;;;;;;;5.90;3.20;;;;;;;13.81;100.00;98704.59;5214671;22;20976;-94
2022/10/17 03:54:22;;;;;;;8.60;4.17;;;;;;;13.76;100.00;98702.28;5213443;22;21285;-96
2022/10/17 03:56:26;;;;;;;5.63;3.33;;;;;;;13.77;100.00;98703.97;5212959;22;20604;-92
2022/10/17 03:58:39;;;;;;;9.40;3.87;;;;;;;13.78;100.00;98700.38;5215292;22;20891;-93
2022/10/17 04:00:42;;;;;;;10.90;3.77;;;;;;;13.76;100.00;98702.28;5214702;22;20951;-92
2022/10/17 04:02:45;;;;;;;9.10;4.30;;;;;;;13.77;100.00;98711.84;5214786;22;20673;-92
2022/10/17 04:04:53;;;;;;;6.30;3.43;;;;;;;13.78;100.00;98716.13;5214213;22;20607;-92
2022/10/17 04:06:56;;;;;;;7.57;4.40;;;;;;;13.79;100.00;98715.19;5214513;22;20997;-93
2022/10/17 04:09:00;;;;;;;4.40;3.60;;;;;;;13.81;100.00;98718.53;5214253;22;20581;-93
2022/10/17 04:11:15;;;;;;;5.40;3.07;;;;;;;13.82;100.00;98711.50;5213503;22;20576;-93
2022/10/17 04:13:18;;;;;;;6.20;3.30;;;;;;;13.83;100.00;98711.41;5214912;22;20587;-92
2022/10/17 04:15:23;;;;;;;7.70;3.27;;;;;;;13.82;100.00;98711.50;5213545;22;21152;-95
2022/10/17 04:17:30;;;;;;;6.50;3.60;;;;;;;13.81;100.00;98705.41;5215360;22;20571;-94
2022/10/17 04:19:40;;;;;;;7.87;3.23;;;;;;;13.81;100.00;98709.81;5190628;22;20634;-93
2022/10/17 04:21:44;;;;;;;5.57;2.83;;;;;;;13.76;100.00;98709.31;5215341;22;20635;-94
2022/10/17 04:23:48;;;;;;;4.00;3.50;;;;;;;13.74;100.00;98709.44;5216220;22;20604;-96
2022/10/17 04:26:05;;;;;;;9.20;3.30;;;;;;;13.76;100.00;98712.78;5189480;22;20592;-95
2022/10/17 04:28:09;;;;;;;4.70;3.13;;;;;;;13.75;100.00;98718.94;5215673;22;20683;-95
2022/10/17 04:30:13;;;;;;;6.10;2.90;;;;;;;13.77;100.00;98719.69;5215712;22;20677;-95
2022/10/17 04:32:18;;;;;;;7.87;4.47;;;;;;;13.79;100.00;98722.22;5215320;22;20603;-92
2022/10/17 04:34:31;;;;;;;7.20;3.47;;;;;;;13.78;100.00;98721.34;5215095;22;20641;-94
2022/10/17 04:36:34;;;;;;;4.93;3.30;;;;;;;13.78;100.00;98725.78;5214736;22;20578;-92
2022/10/17 04:38:38;;;;;;;6.90;3.57;;;;;;;13.77;100.00;98730.19;5214712;22;20664;-94
2022/10/17 04:40:41;;;;;;;6.20;4.00;;;;;;;13.75;100.00;98731.22;5188337;22;20574;-95
2022/10/17 04:42:45;;;;;;;7.50;4.00;;;;;;;13.74;100.00;98735.66;5190047;22;20589;-95
2022/10/17 04:44:53;;;;;;;5.80;3.70;;;;;;;13.71;99.75;98725.38;5214561;22;20920;-94
2022/10/17 04:46:58;;;;;;;5.30;3.87;;;;;;;13.68;100.00;98733.47;5214186;22;21107;-94
2022/10/17 04:49:04;;;;;;;6.20;3.93;;;;;;;13.68;100.00;98730.84;5215112;22;20586;-94
2022/10/17 04:51:11;;;;;;;4.37;3.97;;;;;;;13.69;100.00;98731.66;5189819;22;21032;-94
2022/10/17 04:53:24;;;;;;;5.73;4.03;;;;;;;13.69;100.00;98735.13;5189710;22;20567;-94
2022/10/17 04:55:27;;;;;;;6.23;3.97;;;;;;;13.69;100.00;98729.03;5215257;22;20589;-93
2022/10/17 04:57:30;;;;;;;6.57;3.50;;;;;;;13.69;100.00;98729.88;5218127;22;20582;-94
2022/10/17 04:59:41;;;;;;;6.70;3.97;;;;;;;13.66;100.00;98737.94;5217359;22;20591;-94
2022/10/17 05:01:53;;;;;;;6.30;4.23;;;;;;;13.65;100.00;98741.53;5217292;22;20827;-95
2022/10/17 05:03:57;;;;;;;7.17;3.77;;;;;;;13.63;100.00;98736.50;5217856;22;20963;-94
2022/10/17 05:06:05;;;;;;;4.40;3.63;;;;;;;13.60;99.65;98728.88;5242360;22;21169;-93
2022/10/17 05:08:10;;;;;;;6.03;3.60;;;;;;;13.60;99.78;98737.56;5242635;22;20628;-95
2022/10/17 05:10:14;;;;;;;5.07;3.50;;;;;;;13.60;100.00;98736.72;5215244;22;20610;-94
2022/10/17 05:12:21;;;;;;;5.60;3.47;;;;;;;13.57;99.79;98739.56;5215387;22;20571;-94
2022/10/17 05:14:24;;;;;;;4.80;3.40;;;;;;;13.56;99.76;98737.88;5214758;22;20589;-95
2022/10/17 05:16:29;;;;;;;4.93;3.80;;;;;;;13.58;100.00;98746.50;5214122;22;20951;-94
2022/10/17 05:18:33;;;;;;;12.20;3.97;;;;;;;13.62;100.00;98750.56;5216381;22;20686;-95
2022/10/17 05:20:37;;;;;;;8.03;3.50;;;;;;;13.63;100.00;98749.63;5217670;22;21163;-94
2022/10/17 05:22:43;;;;;;;5.97;3.90;;;;;;;13.63;100.00;98754.84;5217093;22;20603;-94
2022/10/17 05:24:46;;;;;;;10.57;4.00;;;;;;;13.60;100.00;98747.22;5216556;22;20707;-94
2022/10/17 05:26:50;;;;;;;8.73;3.63;;;;;;;13.57;99.60;98743.00;5217894;22;20572;-94
2022/10/17 05:28:59;;;;;;;5.27;3.23;;;;;;;13.49;99.09;98744.50;5217512;22;20587;-94
2022/10/17 05:31:03;;;;;;;6.80;3.20;;;;;;;13.44;98.75;98746.59;5217073;22;20607;-93
2022/10/17 05:33:07;;;;;;;5.50;3.23;;;;;;;13.37;97.92;98742.72;5217809;22;20599;-94
2022/10/17 05:35:10;;;;;;;5.63;3.10;;;;;;;13.37;97.64;98740.13;5215959;22;21132;-93
2022/10/17 05:37:14;;;;;;;6.33;3.47;;;;;;;13.44;99.24;98751.81;5216491;22;20574;-94
2022/10/17 05:39:23;;;;;;;3.97;3.07;;;;;;;13.46;100.00;98749.97;5215838;22;20924;-94
2022/10/17 05:41:27;;;;;;;4.23;3.30;;;;;;;13.46;99.91;98744.72;5215258;22;20586;-93
2022/10/17 05:43:30;;;;;;;6.60;3.40;;;;;;;13.46;99.86;98753.41;5190298;22;20577;-95
2022/10/17 05:45:34;;;;;;;5.47;3.50;;;;;;;13.48;100.00;98753.31;5216804;22;20578;-94
2022/10/17 05:47:37;;;;;;;6.40;3.60;;;;;;;13.48;100.00;98748.88;5217374;22;20630;-92
2022/10/17 05:49:41;;;;;;;8.93;3.60;;;;;;;13.47;100.00;98751.63;5191442;22;20602;-94
2022/10/17 05:51:52;;;;;;;3.90;3.43;;;;;;;13.48;100.00;98762.00;5216962;22;20649;-94
2022/10/17 05:53:56;;;;;;;7.83;3.93;;;;;;;13.47;100.00;98756.84;5214948;22;20567;-93
2022/10/17 05:56:06;;;;;;;6.00;4.03;;;;;;;13.50;100.00;98762.75;5238698;22;20693;-92
2022/10/17 05:58:11;;;;;;;4.93;3.67;;;;;;;13.49;100.00;98766.28;5240807;22;20582;-94
2022/10/17 06:00:25;;;;;;;8.20;4.10;;;;;;;13.51;100.00;98768.81;5241109;22;20585;-93
2022/10/17 06:02:32;;;;;;;6.83;4.20;;;;;;;13.52;100.00;98765.25;5214169;22;20602;-93
2022/10/17 06:04:36;;;;;;;11.20;4.60;;;;;;;13.54;100.00;98772.06;5214723;22;20970;-93
2022/10/17 06:06:40;;;;;;;13.13;4.30;;;;;;;13.55;100.00;98771.13;5214623;22;20672;-94
2022/10/17 06:08:44;;;;;;;8.70;4.20;;;;;;;13.68;100.00;98783.28;5214619;22;21134;-96
2022/10/17 06:10:52;;;;;;;6.70;3.77;;;;;;;13.84;100.00;98783.03;5214772;22;20682;-94
2022/10/17 06:12:56;;;;;;;9.50;3.97;;;;;;;13.96;100.00;98788.25;5214065;22;20584;-95
2022/10/17 06:15:01;;;;;;;4.80;4.00;;;;;;;14.08;100.00;98797.06;5214316;22;20639;-95
2022/10/17 06:17:05;;;;;;;6.80;4.30;;;;;;;14.16;100.00;98793.78;5189128;22;20676;-94
2022/10/17 06:19:08;;;;;;;6.80;4.27;;;;;;;14.23;99.34;98802.88;5214330;22;21154;-96
2022/10/17 06:21:11;;;;;;;6.50;4.23;;;;;;;14.30;99.40;98796.25;5188413;22;20576;-94
2022/10/17 06:23:19;;;;;;;6.83;3.83;;;;;;;14.36;98.50;98787.94;5240497;22;20598;-95
2022/10/17 06:25:30;;;;;;;5.47;4.10;;;;;;;14.42;98.16;98794.56;5214331;22;20653;-93
2022/10/17 06:27:34;;;;;;;7.37;4.30;;;;;;;14.38;99.07;98799.16;5216116;22;20557;-95
2022/10/17 06:29:38;;;;;;;8.50;4.27;;;;;;;14.33;98.57;98808.34;5244358;22;20658;-95
2022/10/17 06:31:41;;;;;;;9.20;4.37;;;;;;;14.32;99.43;98804.03;5241143;22;20574;-91
2022/10/17 06:33:45;;;;;;;6.03;4.00;;;;;;;14.33;100.00;98809.16;5215878;22;20636;-93
2022/10/17 06:35:51;;;;;;;16.13;4.40;;;;;;;14.34;100.00;98804.75;5190299;22;21091;-92
2022/10/17 06:37:55;;;;;;;15.20;4.43;;;;;;;14.42;98.81;98812.94;5215358;22;20682;-94
2022/10/17 06:39:58;;;;;;;9.10;3.90;;;;;;;14.44;99.82;98805.78;5214221;22;20552;-93
2022/10/17 06:42:02;;;;;;;12.93;4.27;;;;;;;14.45;97.55;98810.06;5215913;22;20580;-95
2022/10/17 06:44:32;;;;;;;8.93;3.87;;;;;;;14.49;98.29;98816.75;5237603;22;20620;-95
2022/10/17 06:46:55;;;;;;;12.40;4.30;;;;;;;14.64;98.03;98832.25;5214070;22;20913;-89
2022/10/17 06:48:58;;;;;;;9.93;4.47;;;;;;;14.77;98.57;98831.25;5214657;22;20589;-93
2022/10/17 06:51:11;;;;;;;7.57;4.13;;;;;;;14.86;99.05;98835.00;5240849;22;20570;-93
2022/10/17 06:53:23;;;;;;;6.67;4.23;;;;;;;14.89;98.60;98840.84;5214165;22;20588;-93
2022/10/17 06:55:27;;;;;;;7.60;4.77;;;;;;;14.95;98.34;98839.56;5214100;22;20683;-94
2022/10/17 06:57:50;;;;;;;5.87;3.63;;;;;;;15.07;98.15;98841.28;5215771;22;20572;-92
2022/10/17 07:00:16;;;;;;;11.30;4.73;;;;;;;15.19;99.20;98847.31;5210340;22;20584;-95
2022/10/17 07:02:26;;;;;;;6.50;4.20;;;;;;;15.40;96.62;98843.09;5214614;22;20583;-93
2022/10/17 07:04:32;;;;;;;6.47;4.40;;;;;;;15.56;96.71;98849.69;5214219;22;20610;-92
2022/10/17 07:06:35;;;;;;;7.17;5.27;;;;;;;15.75;96.59;98849.13;5214246;22;20569;-91
2022/10/17 07:08:51;;;;;;;6.33;4.80;;;;;;;15.89;96.25;98851.53;5214971;22;20604;-93
2022/10/17 07:10:55;;;;;;;10.97;4.67;;;;;;;16.06;96.08;98852.72;5214875;22;20588;-93
2022/10/17 07:12:58;;;;;;;7.40;4.70;;;;;;;16.23;96.74;98856.72;5214822;22;20577;-91
2022/10/17 07:15:03;;;;;;;7.17;4.53;;;;;;;16.38;95.85;98863.41;5213566;22;20585;-92
2022/10/17 07:17:06;;;;;;;9.33;4.70;;;;;;;16.49;96.06;98860.75;5189429;22;21206;-91
2022/10/17 07:19:10;;;;;;;9.20;4.70;;;;;;;16.59;94.62;98857.25;5214501;22;20574;-93
2022/10/17 07:21:14;;;;;;;9.70;4.67;;;;;;;16.64;93.49;98861.22;5214545;22;20611;-90
2022/10/17 07:23:18;;;;;;;11.03;5.07;;;;;;;16.73;93.98;98870.16;5214355;22;21188;-89
2022/10/17 07:25:21;;;;;;;9.77;4.43;;;;;;;16.84;93.12;98863.06;5212854;22;20612;-91
2022/10/17 07:27:29;;;;;;;7.80;4.97;;;;;;;16.98;94.14;98870.69;5238396;22;20568;-94
2022/10/17 07:29:33;;;;;;;8.30;4.83;;;;;;;17.05;93.71;98867.44;5211708;22;20667;-94
2022/10/17 07:31:44;;;;;;;6.60;4.80;;;;;;;17.19;93.37;98875.03;5214743;22;20966;-93
2022/10/17 07:33:47;;;;;;;10.10;5.60;;;;;;;17.30;93.90;98879.47;5213507;22;21016;-93
2022/10/17 07:35:52;;;;;;;7.83;4.77;;;;;;;17.44;93.27;98868.59;5214471;22;21124;-94
2022/10/17 07:37:55;;;;;;;8.93;4.73;;;;;;;17.54;92.42;98868.53;5214613;22;20958;-95
2022/10/17 07:39:59;;;;;;;9.97;4.90;;;;;;;17.62;92.15;98866.09;5215131;22;20609;-94
2022/10/17 07:42:02;;;;;;;7.63;4.17;;;;;;;17.71;91.04;98860.06;5214338;22;20585;-92
2022/10/17 07:44:06;;;;;;;6.03;4.57;;;;;;;17.81;91.52;98857.47;5188682;22;20605;-95
2022/10/17 07:46:14;;;;;;;8.60;5.40;;;;;;;17.99;93.37;98851.44;5213664;22;20602;-93
2022/10/17 07:48:19;;;;;;;11.10;5.03;;;;;;;18.14;92.76;98869.47;5213573;22;20568;-94
2022/10/17 07:50:22;;;;;;;7.90;4.57;;;;;;;18.26;93.07;98868.41;5213675;22;20624;-94
2022/10/17 07:52:27;;;;;;;9.07;4.43;;;;;;;18.28;92.18;98868.28;5213505;22;20571;-94
2022/10/17 07:54:30;;;;;;;7.67;4.10;;;;;;;18.34;90.47;98870.38;5240671;22;21344;-94
2022/10/17 07:56:33;;;;;;;7.97;4.80;;;;;;;18.46;92.22;98872.78;5213660;22;20636;-93
2022/10/17 07:58:37;;;;;;;7.83;5.00;;;;;;;18.60;93.24;98878.56;5214617;22;20613;-93
2022/10/17 08:00:40;;;;;;;9.40;5.63;;;;;;;18.73;93.80;98886.22;5242043;22;20569;-95
2022/10/17 08:02:44;;;;;;;8.60;4.50;;;;;;;18.79;92.02;98886.50;5215561;22;20597;-95
2022/10/17 08:04:47;;;;;;;10.00;4.53;;;;;;;18.86;90.81;98887.66;5188501;22;20956;-89
2022/10/17 08:06:50;;;;;;;8.73;4.53;;;;;;;18.94;91.57;98887.78;5214642;22;20668;-93
2022/10/17 08:09:04;;;;;;;5.67;4.20;;;;;;;19.09;91.41;98883.81;5214898;22;21146;-92
2022/10/17 08:11:08;;;;;;;8.87;4.70;;;;;;;19.13;89.31;98887.88;5214951;22;20590;-89
2022/10/17 08:13:12;;;;;;;8.90;4.70;;;;;;;19.25;90.16;98887.59;5215365;22;20999;-90
2022/10/17 08:15:15;;;;;;;9.20;4.43;;;;;;;19.37;91.59;98897.91;5215399;22;20923;-91
2022/10/17 08:17:18;;;;;;;5.73;3.80;;;;;;;19.38;88.84;98896.09;5215515;22;21387;-89
2022/10/17 08:19:21;;;;;;;7.87;3.97;;;;;;;19.39;89.71;98889.81;5242569;22;20605;-94
2022/10/17 08:21:24;;;;;;;6.70;3.80;;;;;;;19.40;87.29;98897.63;5215737;22;20584;-92
2022/10/17 08:23:27;;;;;;;6.00;4.20;;;;;;;19.49;89.19;98902.06;5215391;22;20913;-92
2022/10/17 08:25:32;;;;;;;6.60;4.60;;;;;;;19.55;88.73;98903.34;5188691;22;20614;-91
2022/10/17 08:27:35;;;;;;;7.93;4.93;;;;;;;19.60;89.43;98891.34;5211525;22;20581;-90
2022/10/17 08:29:38;;;;;;;7.00;4.50;;;;;;;19.68;90.01;98890.63;5188426;22;20573;-91
2022/10/17 08:31:42;;;;;;;5.63;4.30;;;;;;;19.69;89.33;98887.00;5213467;22;20608;-91
2022/10/17 08:33:50;;;;;;;5.43;4.57;;;;;;;19.74;89.29;98895.34;5212965;22;20568;-91
2022/10/17 08:35:53;;;;;;;8.23;4.43;;;;;;;19.83;89.55;98897.16;5188229;22;20576;-91
2022/10/17 08:38:00;;;;;;;9.60;5.13;;;;;;;19.95;91.14;98896.88;5214544;22;20589;-92
2022/10/17 08:40:04;;;;;;;9.70;4.07;;;;;;;20.07;91.26;98909.00;5215139;22;20635;-91
2022/10/17 08:42:37;;;;;;;5.77;3.87;;;;;;;20.20;90.87;98907.69;5242476;22;21092;-94
2022/10/17 08:44:49;;;;;;;7.40;4.57;;;;;;;20.25;90.74;98910.78;5240369;22;20955;-93
2022/10/17 08:46:55;;;;;;;7.13;4.10;;;;;;;20.32;90.80;98914.50;5211334;22;20585;-92
2022/10/17 08:49:02;;;;;;;5.43;4.10;;;;;;;20.37;91.52;98907.78;5213562;22;20580;-90
2022/10/17 08:51:12;;;;;;;8.00;4.40;;;;;;;20.47;90.48;98921.81;5239977;22;20567;-95
2022/10/17 08:53:19;;;;;;;7.40;4.30;;;;;;;20.58;90.58;98916.38;5216347;22;20646;-96
2022/10/17 08:55:28;;;;;;;8.20;4.73;;;;;;;20.69;88.82;98915.34;5188647;22;20589;-92
2022/10/17 08:57:34;;;;;;;6.10;4.30;;;;;;;20.80;88.10;98918.66;5217942;22;20613;-96
2022/10/17 08:59:37;;;;;;;8.60;4.10;;;;;;;20.92;88.44;98920.13;5217789;22;20582;-94
2022/10/17 09:01:45;;;;;;;10.37;3.93;;;;;;;21.05;88.76;98920.56;5218159;22;20583;-96
2022/10/17 09:04:05;;;;;;;7.80;4.97;;;;;;;21.20;88.51;98925.25;5191018;22;20614;-96
2022/10/17 09:06:16;;;;;;;5.60;4.60;;;;;;;21.27;86.47;98930.78;5218587;22;20618;-94
2022/10/17 09:08:30;;;;;;;7.37;4.40;;;;;;;21.24;86.91;98923.13;5219053;22;20601;-94
2022/10/17 09:10:43;;;;;;;8.90;4.17;;;;;;;21.28;86.90;98918.19;5218766;22;20672;-96
2022/10/17 09:13:03;;;;;;;9.20;5.00;;;;;;;21.33;86.84;98926.56;5217586;22;20574;-96
2022/10/17 09:15:32;;;;;;;7.27;4.50;;;;;;;21.44;87.94;98925.47;5192145;22;21083;-96
2022/10/17 09:17:48;;;;;;;7.03;3.80;;;;;;;21.51;88.59;98924.75;5243147;22;21127;-94
2022/10/17 09:19:59;;;;;;;6.93;4.10;;;;;;;21.53;88.20;98919.28;5192483;22;21405;-96
2022/10/17 09:22:05;;;;;;;4.27;3.43;;;;;;;21.63;87.42;98918.22;5218098;22;20574;-94
2022/10/17 09:24:15;;;;;;;5.77;3.60;;;;;;;21.77;86.79;98915.88;5217844;22;20558;-96
2022/10/17 09:26:18;;;;;;;6.20;3.67;;;;;;;21.91;85.07;98925.09;5218456;22;20586;-96
2022/10/17 09:28:26;;;;;;;3.93;3.40;;;;;;;21.96;84.04;98931.59;5218951;22;20971;-94
2022/10/17 09:30:35;;;;;;;6.43;3.67;;;;;;;22.01;84.63;98936.47;5217036;22;20578;-96
2022/10/17 09:32:48;;;;;;;4.10;3.47;;;;;;;21.93;84.16;98931.09;5217836;22;20582;-94
2022/10/17 09:34:53;;;;;;;3.77;3.20;;;;;;;21.86;84.18;98930.03;5216706;22;21011;-96
2022/10/17 09:36:58;;;;;;;6.83;3.70;;;;;;;21.76;84.09;98930.13;5216599;22;21161;-95
2022/10/17 09:39:04;;;;;;;4.20;3.50;;;;;;;21.72;84.64;98940.38;5216855;22;20617;-94
2022/10/17 09:41:17;;;;;;;11.07;3.20;;;;;;;21.68;85.13;98931.91;5216779;22;20567;-95
2022/10/17 09:43:42;;;;;;;5.70;2.90;;;;;;;21.73;85.36;98932.25;5216959;22;20609;-96
2022/10/17 09:45:54;;;;;;;9.20;3.80;;;;;;;21.69;84.55;98930.88;5217751;22;20581;-92
2022/10/17 09:48:02;;;;;;;5.17;3.53;;;;;;;21.61;84.27;98935.31;5187532;22;20970;-95
2022/10/17 09:50:20;;;;;;;11.20;4.30;;;;;;;21.64;84.67;98930.53;5211455;22;20633;-91